createdAt,value
2023-05-15T00:00:06.503Z,12.35
2023-05-15T00:02:35.817Z,12.40
2023-05-15T00:05:04.475Z,11.27
2023-05-15T00:07:32.627Z,11.43
2023-05-15T00:10:00.525Z,11.60
2023-05-15T00:12:28.892Z,11.18
2023-05-15T00:14:56.720Z,9.95
2023-05-15T00:17:24.577Z,10.70
2023-05-15T00:19:57.675Z,10.57
2023-05-15T00:22:26.141Z,9.70
2023-05-15T00:24:54.440Z,10.05
2023-05-15T00:27:22.223Z,11.85
2023-05-15T00:29:49.996Z,9.98
2023-05-15T00:32:17.829Z,10.95
2023-05-15T00:34:45.764Z,10.95
2023-05-15T00:37:15.086Z,10.38
2023-05-15T00:39:43.058Z,11.02
2023-05-15T00:42:11.408Z,11.35
2023-05-15T00:44:41.356Z,11.02
2023-05-15T00:47:11.824Z,10.75
2023-05-15T00:49:40.980Z,12.07
2023-05-15T00:52:08.881Z,10.73
2023-05-15T00:54:38.086Z,11.07
2023-05-15T00:57:07.252Z,11.27
2023-05-15T00:59:36.154Z,11.45
2023-05-15T01:02:04.197Z,11.20
2023-05-15T01:04:32.529Z,11.13
2023-05-15T01:07:00.346Z,12.02
2023-05-15T01:09:31.262Z,11.25
2023-05-15T01:12:03.436Z,10.27
2023-05-15T01:14:31.158Z,11.02
2023-05-15T01:16:59.095Z,12.32
2023-05-15T01:19:27.331Z,10.38
2023-05-15T01:22:17.476Z,11.93
2023-05-15T01:25:12.279Z,10.45
2023-05-15T01:27:46.372Z,11.63
2023-05-15T01:30:20.405Z,12.65
2023-05-15T01:32:53.445Z,13.88
2023-05-15T01:35:25.079Z,13.48
2023-05-15T01:38:01.715Z,13.93
2023-05-15T01:40:30.775Z,11.80
2023-05-15T01:43:07.078Z,12.07
2023-05-15T01:45:36.697Z,12.75
2023-05-15T01:48:09.722Z,12.68
2023-05-15T01:50:40.719Z,12.32
2023-05-15T01:53:10.637Z,12.30
2023-05-15T01:55:39.986Z,12.20
2023-05-15T01:58:10.431Z,12.70
2023-05-15T02:00:40.253Z,12.43
2023-05-15T02:03:08.245Z,12.63
2023-05-15T02:05:36.231Z,12.63
2023-05-15T02:08:05.514Z,11.98
2023-05-15T02:10:34.346Z,12.15
2023-05-15T02:13:03.020Z,12.73
2023-05-15T02:15:32.377Z,11.63
2023-05-15T02:18:00.282Z,11.20
2023-05-15T02:20:28.248Z,12.85
2023-05-15T02:22:56.048Z,11.68
2023-05-15T02:25:35.824Z,12.65
2023-05-15T02:28:07.925Z,12.00
2023-05-15T02:30:42.404Z,12.48
2023-05-15T02:33:20.895Z,12.77
2023-05-15T02:35:52.456Z,12.32
2023-05-15T02:38:26.740Z,11.45
2023-05-15T02:40:58.180Z,12.13
2023-05-15T02:43:27.408Z,11.60
2023-05-15T02:45:58.226Z,12.60
2023-05-15T02:48:27.007Z,12.35
2023-05-15T02:50:55.349Z,12.32
2023-05-15T02:53:23.204Z,12.50
2023-05-15T02:55:51.764Z,12.90
2023-05-15T02:58:19.704Z,12.85
2023-05-15T03:00:47.613Z,14.93
2023-05-15T03:03:16.836Z,13.85
2023-05-15T03:05:44.788Z,13.13
2023-05-15T03:08:12.594Z,13.43
2023-05-15T03:10:40.351Z,14.70
2023-05-15T03:13:08.111Z,14.07
2023-05-15T03:15:35.907Z,13.60
2023-05-15T03:18:03.756Z,13.15
2023-05-15T03:20:33.117Z,13.05
2023-05-15T03:23:00.878Z,15.95
2023-05-15T03:25:28.719Z,15.40
2023-05-15T03:27:56.530Z,16.00
2023-05-15T03:30:24.292Z,15.65
2023-05-15T03:32:52.140Z,15.43
2023-05-15T03:35:19.966Z,17.23
2023-05-15T03:37:49.129Z,16.15
2023-05-15T03:40:16.984Z,16.17
2023-05-15T03:42:44.816Z,17.83
2023-05-15T03:45:12.632Z,17.95
2023-05-15T03:47:40.482Z,16.75
2023-05-15T03:50:08.834Z,16.42
2023-05-15T03:52:36.651Z,18.83
2023-05-15T03:55:06.792Z,19.13
2023-05-15T03:57:35.597Z,17.77
2023-05-15T04:00:09.753Z,18.25
2023-05-15T04:02:37.759Z,18.25
2023-05-15T04:05:06.906Z,17.58
2023-05-15T04:07:35.846Z,18.45
2023-05-15T04:10:05.663Z,18.20
2023-05-15T04:12:35.440Z,18.63
2023-05-15T04:15:16.009Z,18.23
2023-05-15T04:17:44.352Z,17.15
2023-05-15T04:20:14.197Z,17.80
2023-05-15T04:22:42.530Z,18.35
2023-05-15T04:25:14.801Z,18.52
2023-05-15T04:27:43.736Z,18.05
2023-05-15T04:30:12.841Z,17.05
2023-05-15T04:32:41.337Z,17.67
2023-05-15T04:35:12.281Z,18.05
2023-05-15T04:37:41.071Z,16.88
2023-05-15T04:40:12.219Z,18.60
2023-05-15T04:42:40.001Z,20.23
2023-05-15T04:45:09.222Z,18.88
2023-05-15T04:47:37.464Z,20.55
2023-05-15T04:50:06.548Z,20.48
2023-05-15T04:52:34.543Z,20.17
2023-05-15T04:55:02.809Z,19.33
2023-05-15T04:57:32.058Z,19.85
2023-05-15T05:00:02.553Z,19.48
2023-05-15T05:02:30.607Z,19.42
2023-05-15T05:04:58.435Z,19.67
2023-05-15T05:07:26.337Z,21.08
2023-05-15T05:09:54.144Z,20.80
2023-05-15T05:12:21.909Z,21.42
2023-05-15T05:14:51.103Z,20.88
2023-05-15T05:17:20.957Z,23.75
2023-05-15T05:19:48.700Z,22.08
2023-05-15T05:22:16.574Z,22.25
2023-05-15T05:24:44.394Z,23.42
2023-05-15T05:27:12.231Z,23.38
2023-05-15T05:29:41.338Z,27.50
2023-05-15T05:32:10.639Z,26.88
2023-05-15T05:34:38.508Z,27.42
2023-05-15T05:37:06.497Z,27.50
2023-05-15T05:39:34.362Z,28.40
2023-05-15T05:42:02.179Z,30.67
2023-05-15T05:44:30.154Z,28.55
2023-05-15T05:46:58.214Z,32.75
2023-05-15T05:49:27.830Z,30.25
2023-05-15T05:51:55.756Z,31.17
2023-05-15T05:54:23.790Z,30.90
2023-05-15T05:56:51.713Z,32.53
2023-05-15T05:59:19.523Z,31.13
2023-05-15T06:01:49.200Z,31.15
2023-05-15T06:04:18.355Z,31.27
2023-05-15T06:06:47.714Z,33.47
2023-05-15T06:09:15.581Z,32.60
2023-05-15T06:11:43.427Z,30.83
2023-05-15T06:14:11.256Z,30.08
2023-05-15T06:16:39.162Z,30.27
2023-05-15T06:19:07.168Z,32.47
2023-05-15T06:21:35.288Z,33.15
2023-05-15T06:24:04.682Z,30.33
2023-05-15T06:26:32.545Z,30.58
2023-05-15T06:29:00.342Z,29.13
2023-05-15T06:31:28.244Z,29.83
2023-05-15T06:33:56.241Z,31.23
2023-05-15T06:36:24.141Z,29.33
2023-05-15T06:38:51.938Z,29.20
2023-05-15T06:41:21.703Z,28.13
2023-05-15T06:43:49.521Z,28.17
2023-05-15T06:46:19.328Z,28.20
2023-05-15T06:48:48.347Z,25.33
2023-05-15T06:51:16.166Z,27.13
2023-05-15T06:53:44.168Z,25.65
2023-05-15T06:56:11.991Z,26.35
2023-05-15T06:58:41.194Z,28.10
2023-05-15T07:01:10.355Z,27.15
2023-05-15T07:03:38.526Z,26.27
2023-05-15T07:06:06.611Z,25.80
2023-05-15T07:08:34.350Z,25.08
2023-05-15T07:11:02.164Z,24.75
2023-05-15T07:13:29.936Z,24.75
2023-05-15T07:15:59.220Z,25.15
2023-05-15T07:18:27.321Z,26.45
2023-05-15T07:20:55.343Z,25.30
2023-05-15T07:23:23.119Z,24.35
2023-05-15T07:25:50.927Z,24.17
2023-05-15T07:28:18.667Z,25.02
2023-05-15T07:30:46.518Z,26.08
2023-05-15T07:33:15.734Z,23.90
2023-05-15T07:35:43.676Z,24.05
2023-05-15T07:38:12.147Z,24.85
2023-05-15T07:40:40.122Z,25.65
2023-05-15T07:43:07.919Z,24.10
2023-05-15T07:45:36.420Z,23.48
2023-05-15T07:48:16.604Z,24.80
2023-05-15T07:50:46.479Z,22.98
2023-05-15T07:53:14.741Z,23.83
2023-05-15T07:55:42.645Z,23.20
2023-05-15T07:58:10.562Z,22.50
2023-05-15T08:00:38.357Z,21.08
2023-05-15T08:03:06.352Z,21.17
2023-05-15T08:05:35.628Z,20.33
2023-05-15T08:08:03.446Z,21.40
2023-05-15T08:10:31.215Z,21.23
2023-05-15T08:12:59.009Z,19.05
2023-05-15T08:15:26.956Z,19.70
2023-05-15T08:17:54.959Z,19.73
2023-05-15T08:20:22.979Z,18.98
2023-05-15T08:22:52.190Z,18.15
2023-05-15T08:25:20.003Z,19.42
2023-05-15T08:27:47.767Z,17.60
2023-05-15T08:30:16.535Z,17.55
2023-05-15T08:32:45.752Z,16.80
2023-05-15T08:35:13.683Z,17.05
2023-05-15T08:37:41.474Z,15.73
2023-05-15T08:40:11.596Z,15.38
2023-05-15T08:42:45.307Z,15.98
2023-05-15T08:45:14.825Z,16.27
2023-05-15T08:47:44.079Z,15.32
2023-05-15T08:50:15.429Z,14.73
2023-05-15T08:52:44.105Z,14.25
2023-05-15T08:55:14.411Z,14.23
2023-05-15T08:57:42.758Z,15.38
2023-05-15T09:00:14.461Z,14.20
2023-05-15T09:02:43.451Z,13.70
2023-05-15T09:05:11.476Z,14.82
2023-05-15T09:07:41.037Z,16.08
2023-05-15T09:10:11.334Z,16.63
2023-05-15T09:12:44.101Z,17.25
2023-05-15T09:15:14.551Z,15.18
2023-05-15T09:17:43.282Z,14.75
2023-05-15T09:20:27.094Z,15.25
2023-05-15T09:22:56.837Z,14.60
2023-05-15T09:25:41.011Z,15.35
2023-05-15T09:28:11.457Z,14.63
2023-05-15T09:30:39.840Z,14.65
2023-05-15T09:33:08.242Z,15.60
2023-05-15T09:35:37.596Z,14.80
2023-05-15T09:38:10.313Z,14.82
2023-05-15T09:40:39.340Z,14.25
2023-05-15T09:43:07.115Z,15.40
2023-05-15T09:45:37.855Z,15.48
2023-05-15T09:48:07.287Z,14.48
2023-05-15T09:50:37.088Z,15.60
2023-05-15T09:53:05.511Z,17.15
2023-05-15T09:55:34.216Z,16.00
2023-05-15T09:58:11.201Z,17.30
2023-05-15T10:00:47.632Z,16.27
2023-05-15T10:03:19.051Z,16.92
2023-05-15T10:05:47.054Z,16.45
2023-05-15T10:08:16.165Z,15.15
2023-05-15T10:10:44.596Z,17.33
2023-05-15T10:13:13.028Z,17.50
2023-05-15T10:15:43.188Z,16.63
2023-05-15T10:18:12.473Z,16.70
2023-05-15T10:20:40.687Z,16.40
2023-05-15T10:23:12.025Z,15.98
2023-05-15T10:25:46.786Z,16.25
2023-05-15T10:28:16.772Z,15.75
2023-05-15T10:30:47.373Z,15.80
2023-05-15T10:33:16.497Z,17.10
2023-05-15T10:35:45.372Z,15.35
2023-05-15T10:38:14.462Z,15.88
2023-05-15T10:40:42.820Z,15.13
2023-05-15T10:43:11.615Z,15.50
2023-05-15T10:45:40.447Z,15.25
2023-05-15T10:48:12.542Z,14.13
2023-05-15T10:50:40.623Z,14.35
2023-05-15T10:53:10.705Z,16.02
2023-05-15T10:55:38.756Z,16.27
2023-05-15T10:58:10.580Z,14.43
2023-05-15T11:00:43.700Z,15.15
2023-05-15T11:03:16.826Z,15.15
2023-05-15T11:06:10.860Z,12.90
2023-05-15T11:08:39.562Z,14.65
2023-05-15T11:11:57.497Z,15.60
2023-05-15T11:14:27.629Z,15.43
2023-05-15T11:17:03.998Z,14.93
2023-05-15T11:19:38.651Z,15.70
2023-05-15T11:22:20.543Z,16.35
2023-05-15T11:24:51.360Z,15.77
2023-05-15T11:27:20.515Z,13.95
2023-05-15T11:30:12.054Z,15.50
2023-05-15T11:32:45.002Z,16.52
2023-05-15T11:35:15.504Z,17.23
2023-05-15T11:37:44.640Z,17.45
2023-05-15T11:40:15.597Z,17.10
2023-05-15T11:42:59.412Z,16.35
2023-05-15T11:45:27.978Z,15.15
2023-05-15T11:47:55.799Z,16.27
2023-05-15T11:50:25.498Z,16.15
2023-05-15T11:52:54.026Z,15.05
2023-05-15T11:55:23.218Z,14.43
2023-05-15T11:57:51.011Z,15.32
2023-05-15T12:00:19.137Z,14.63
2023-05-15T12:02:47.239Z,15.63
2023-05-15T12:05:15.169Z,14.90
2023-05-15T12:07:45.442Z,15.75
2023-05-15T12:10:14.387Z,16.77
2023-05-15T12:12:42.778Z,18.02
2023-05-15T12:15:11.847Z,22.35
2023-05-15T12:17:40.246Z,19.90
2023-05-15T12:20:10.724Z,20.42
2023-05-15T12:22:39.360Z,22.45
2023-05-15T12:25:11.275Z,24.58
2023-05-15T12:27:40.946Z,24.60
2023-05-15T12:30:10.961Z,28.55
2023-05-15T12:32:39.882Z,30.05
2023-05-15T12:35:08.140Z,31.10
2023-05-15T12:37:37.215Z,29.88
2023-05-15T12:40:10.203Z,28.48
2023-05-15T12:42:43.877Z,28.52
2023-05-15T12:45:16.346Z,29.33
2023-05-15T12:47:44.965Z,28.85
2023-05-15T12:50:15.945Z,27.40
2023-05-15T12:52:48.541Z,26.65
2023-05-15T12:55:23.247Z,25.65
2023-05-15T12:57:52.606Z,24.90
2023-05-15T13:00:22.705Z,24.25
2023-05-15T13:02:51.930Z,23.60
2023-05-15T13:05:20.327Z,25.42
2023-05-15T13:07:48.989Z,24.55
2023-05-15T13:10:16.900Z,24.13
2023-05-15T13:12:46.401Z,23.25
2023-05-15T13:15:27.748Z,22.23
2023-05-15T13:17:59.420Z,25.20
2023-05-15T13:20:29.267Z,24.95
2023-05-15T13:22:57.153Z,24.80
2023-05-15T13:25:25.257Z,25.88
2023-05-15T13:27:53.164Z,23.40
2023-05-15T13:30:21.262Z,27.70
2023-05-15T13:32:50.739Z,25.33
2023-05-15T13:35:19.192Z,26.33
2023-05-15T13:37:46.962Z,26.15
2023-05-15T13:40:15.202Z,25.65
2023-05-15T13:42:44.779Z,24.33
2023-05-15T13:45:13.979Z,23.63
2023-05-15T13:47:42.146Z,23.73
2023-05-15T13:50:13.336Z,24.73
2023-05-15T13:52:42.435Z,23.55
2023-05-15T13:55:11.120Z,22.75
2023-05-15T13:57:39.428Z,23.05
2023-05-15T14:00:10.620Z,23.90
2023-05-15T14:02:38.479Z,22.85
2023-05-15T14:05:07.573Z,22.23
2023-05-15T14:07:36.780Z,24.23
2023-05-15T14:10:05.198Z,24.48
2023-05-15T14:12:33.807Z,22.30
2023-05-15T14:15:02.197Z,24.00
2023-05-15T14:17:30.134Z,23.80
2023-05-15T14:19:58.123Z,22.88
2023-05-15T14:22:25.927Z,24.25
2023-05-15T14:24:55.270Z,23.92
2023-05-15T14:27:23.009Z,22.15
2023-05-15T14:29:51.213Z,22.75
2023-05-15T14:32:19.138Z,21.85
2023-05-15T14:34:47.062Z,20.65
2023-05-15T14:37:15.016Z,19.40
2023-05-15T14:39:42.912Z,18.85
2023-05-15T14:42:12.307Z,15.43
2023-05-15T14:44:40.113Z,16.15
2023-05-15T14:47:09.324Z,14.57
2023-05-15T14:49:38.032Z,13.23
2023-05-15T14:52:07.889Z,11.70
2023-05-15T14:54:36.510Z,9.88
2023-05-15T14:57:04.875Z,9.63
2023-05-15T14:59:34.099Z,8.23
2023-05-15T15:02:02.171Z,7.60
2023-05-15T15:04:34.411Z,7.18
2023-05-15T15:07:05.034Z,6.65
2023-05-15T15:09:32.881Z,5.85
2023-05-15T15:12:00.934Z,4.80
2023-05-15T15:14:28.912Z,4.97
2023-05-15T15:16:58.130Z,5.00
2023-05-15T15:19:26.076Z,4.38
2023-05-15T15:21:53.972Z,4.80
2023-05-15T15:24:21.830Z,4.72
2023-05-15T15:26:49.676Z,4.20
2023-05-15T15:29:17.592Z,5.20
2023-05-15T15:31:45.426Z,4.35
2023-05-15T15:34:14.607Z,4.00
2023-05-15T15:36:43.574Z,3.45
2023-05-15T15:39:13.120Z,3.97
2023-05-15T15:41:40.992Z,3.90
2023-05-15T15:44:08.812Z,3.67
2023-05-15T15:46:36.645Z,3.25
2023-05-15T15:49:05.999Z,3.90
2023-05-15T15:51:36.281Z,3.45
2023-05-15T15:54:04.155Z,3.50
2023-05-15T15:56:31.976Z,3.60
2023-05-15T15:58:59.764Z,3.28
2023-05-15T16:01:27.764Z,4.22
2023-05-15T16:03:55.680Z,3.80
2023-05-15T16:06:23.499Z,3.08
2023-05-15T16:08:53.067Z,3.70
2023-05-15T16:11:21.501Z,3.13
2023-05-15T16:13:49.599Z,3.38
2023-05-15T16:16:17.648Z,3.20
2023-05-15T16:18:45.874Z,2.70
2023-05-15T16:21:14.117Z,2.85
2023-05-15T16:23:42.300Z,2.60
2023-05-15T16:26:11.995Z,3.05
2023-05-15T16:28:40.008Z,2.90
2023-05-15T16:31:08.034Z,2.65
2023-05-15T16:33:35.937Z,2.88
2023-05-15T16:36:05.177Z,3.30
2023-05-15T16:38:33.128Z,2.65
2023-05-15T16:41:01.474Z,3.50
2023-05-15T16:43:30.616Z,2.80
2023-05-15T16:45:58.970Z,2.30
2023-05-15T16:48:27.990Z,3.38
2023-05-15T16:50:55.784Z,2.78
2023-05-15T16:53:24.228Z,2.72
2023-05-15T16:55:52.028Z,2.40
2023-05-15T16:58:20.167Z,2.70
2023-05-15T17:00:49.473Z,2.60
2023-05-15T17:03:18.905Z,2.38
2023-05-15T17:05:47.418Z,2.40
2023-05-15T17:08:15.313Z,2.30
2023-05-15T17:10:43.257Z,2.47
2023-05-15T17:13:11.053Z,3.65
2023-05-15T17:15:38.861Z,2.35
2023-05-15T17:18:08.389Z,2.53
2023-05-15T17:20:36.243Z,2.03
2023-05-15T17:23:04.408Z,2.15
2023-05-15T17:25:32.311Z,2.05
2023-05-15T17:28:00.255Z,2.47
2023-05-15T17:30:28.367Z,2.50
2023-05-15T17:32:56.818Z,2.10
2023-05-15T17:35:26.372Z,2.15
2023-05-15T17:37:54.435Z,2.60
2023-05-15T17:40:22.298Z,2.60
2023-05-15T17:42:50.038Z,1.95
2023-05-15T17:45:18.065Z,1.88
2023-05-15T17:47:45.953Z,3.00
2023-05-15T17:50:13.779Z,2.67
2023-05-15T17:52:42.934Z,2.00
2023-05-15T17:55:10.965Z,2.28
2023-05-15T17:57:38.745Z,1.95
2023-05-15T18:00:08.364Z,2.83
2023-05-15T18:02:36.234Z,2.20
2023-05-15T18:05:04.364Z,2.03
2023-05-15T18:07:32.295Z,2.28
2023-05-15T18:10:01.729Z,2.65
2023-05-15T18:12:29.579Z,2.47
2023-05-15T18:14:57.493Z,2.30
2023-05-15T18:17:25.416Z,2.47
2023-05-15T18:19:53.450Z,2.38
2023-05-15T18:22:21.430Z,2.80
2023-05-15T18:24:49.234Z,2.30
2023-05-15T18:27:18.417Z,1.63
2023-05-15T18:29:46.196Z,2.00
2023-05-15T18:32:14.066Z,2.10
2023-05-15T18:34:41.816Z,2.17
2023-05-15T18:37:09.597Z,2.78
2023-05-15T18:39:38.508Z,1.90
2023-05-15T18:42:06.883Z,2.65
2023-05-15T18:44:36.049Z,2.00
2023-05-15T18:47:04.438Z,2.17
2023-05-15T18:49:32.384Z,2.50
2023-05-15T18:52:00.436Z,2.20
2023-05-15T18:54:28.389Z,2.72
2023-05-15T18:56:56.453Z,2.72
2023-05-15T18:59:24.641Z,3.47
2023-05-15T19:01:54.303Z,3.35
2023-05-15T19:04:22.611Z,2.28
2023-05-15T19:06:50.440Z,2.80
2023-05-15T19:09:19.092Z,3.92
2023-05-15T19:11:47.399Z,3.03
2023-05-15T19:14:17.039Z,2.92
2023-05-15T19:16:45.237Z,3.63
2023-05-15T19:19:14.621Z,2.78
2023-05-15T19:21:42.506Z,2.63
2023-05-15T19:24:10.428Z,2.75
2023-05-15T19:26:38.311Z,2.95
2023-05-15T19:29:06.460Z,3.33
2023-05-15T19:31:34.448Z,4.32
2023-05-15T19:34:02.297Z,3.63
2023-05-15T19:36:31.670Z,3.28
2023-05-15T19:38:59.531Z,2.97
2023-05-15T19:41:27.466Z,3.40
2023-05-15T19:43:55.340Z,4.22
2023-05-15T19:46:23.363Z,3.50
2023-05-15T19:48:51.280Z,3.63
2023-05-15T19:51:19.070Z,2.92
2023-05-15T19:53:48.297Z,3.83
2023-05-15T19:56:16.167Z,3.38
2023-05-15T19:58:44.056Z,3.30
2023-05-15T20:01:12.176Z,3.10
2023-05-15T20:03:40.078Z,3.95
2023-05-15T20:06:08.283Z,2.78
2023-05-15T20:08:36.111Z,3.30
2023-05-15T20:11:05.379Z,2.40
2023-05-15T20:13:34.609Z,2.90
2023-05-15T20:16:04.029Z,2.75
2023-05-15T20:18:34.469Z,2.53
2023-05-15T20:21:02.698Z,3.38
2023-05-15T20:23:30.553Z,2.83
2023-05-15T20:25:58.398Z,3.40
2023-05-15T20:28:29.277Z,3.08
2023-05-15T20:30:57.852Z,2.90
2023-05-15T20:33:26.083Z,2.85
2023-05-15T20:35:54.012Z,3.45
2023-05-15T20:38:23.044Z,1.60
2023-05-15T20:40:51.392Z,2.08
2023-05-15T20:43:19.322Z,1.60
2023-05-15T20:45:48.548Z,1.90
2023-05-15T20:48:16.355Z,1.90
2023-05-15T20:50:44.130Z,1.35
2023-05-15T20:53:12.029Z,1.10
2023-05-15T20:55:39.963Z,1.33
2023-05-15T20:58:07.865Z,1.10
2023-05-15T21:00:36.355Z,1.70
2023-05-15T21:03:06.122Z,1.48
2023-05-15T21:05:34.071Z,1.30
2023-05-15T21:08:02.177Z,1.35
2023-05-15T21:10:30.141Z,1.95
2023-05-15T21:12:59.365Z,1.92
2023-05-15T21:15:27.433Z,1.27
2023-05-15T21:17:55.269Z,1.60
2023-05-15T21:20:25.204Z,1.17
2023-05-15T21:22:53.199Z,1.20
2023-05-15T21:25:21.620Z,1.85
2023-05-15T21:27:49.620Z,1.85
2023-05-15T21:30:17.514Z,1.52
2023-05-15T21:32:45.414Z,1.33
2023-05-15T21:35:13.266Z,1.60
2023-05-15T21:37:42.468Z,2.25
2023-05-15T21:40:11.763Z,1.40
2023-05-15T21:42:39.570Z,1.67
2023-05-15T21:45:08.634Z,1.90
2023-05-15T21:47:36.717Z,1.60
2023-05-15T21:50:05.282Z,1.60
2023-05-15T21:52:33.127Z,2.40
2023-05-15T21:55:02.719Z,2.00
2023-05-15T21:57:30.618Z,1.75
2023-05-15T21:59:58.451Z,2.80
2023-05-15T22:02:26.277Z,1.95
2023-05-15T22:04:54.115Z,1.60
2023-05-15T22:07:22.479Z,1.60
2023-05-15T22:09:51.179Z,2.30
2023-05-15T22:12:21.059Z,1.92
2023-05-15T22:14:58.408Z,2.08
2023-05-15T22:17:29.208Z,2.35
2023-05-15T22:20:06.548Z,2.17
2023-05-15T22:22:34.862Z,2.40
2023-05-15T22:25:02.750Z,2.33
2023-05-15T22:27:32.333Z,2.10
2023-05-15T22:30:00.372Z,2.60
2023-05-15T22:32:28.388Z,2.20
2023-05-15T22:34:57.043Z,2.40
2023-05-15T22:37:25.046Z,2.15
2023-05-15T22:39:53.324Z,1.85
2023-05-15T22:42:21.171Z,1.80
2023-05-15T22:44:50.392Z,2.50
2023-05-15T22:47:18.671Z,2.20
2023-05-15T22:49:46.439Z,2.90
2023-05-15T22:52:14.283Z,2.30
2023-05-15T22:54:42.168Z,2.70
2023-05-15T22:57:09.972Z,1.90
2023-05-15T22:59:37.937Z,2.47
2023-05-15T23:02:07.238Z,2.85
2023-05-15T23:04:35.309Z,2.50
2023-05-15T23:07:03.204Z,2.88
2023-05-15T23:09:31.057Z,3.65
2023-05-15T23:11:58.879Z,3.40
2023-05-15T23:14:26.720Z,3.67
2023-05-15T23:16:54.530Z,4.10
2023-05-15T23:19:23.874Z,3.03
2023-05-15T23:21:52.292Z,2.58
2023-05-15T23:24:20.122Z,2.92
2023-05-15T23:26:48.114Z,3.47
2023-05-15T23:29:15.896Z,3.35
2023-05-15T23:31:44.041Z,3.40
2023-05-15T23:34:12.269Z,3.85
2023-05-15T23:36:41.487Z,3.28
2023-05-15T23:39:09.356Z,3.00
2023-05-15T23:41:37.234Z,3.92
2023-05-15T23:44:05.848Z,3.65
2023-05-15T23:46:35.908Z,3.10
2023-05-15T23:49:03.736Z,2.83
2023-05-15T23:51:32.473Z,3.33
2023-05-15T23:54:01.688Z,3.20
2023-05-15T23:56:29.583Z,2.90
2023-05-15T23:58:57.521Z,2.60
